KUIN/UIN METAR and TAF weather

Enter ICAO airport designator
Station Type Date Time Source
KUIN METAR 2019/06/18 04:54 UTC NOAA

KUIN 180454Z AUTO 12006KT 9SM OVC017 21/18 A2997 RMK AO2 SLP144 T02060178 $


Station Type Date Time Source
KUIN Decoded METAR 2019/06/18 04:54 UTC NOAA

QUINCY MUNI. BALDWIN FIELD, IL, United States (KUIN) 39-56N 091-12W
Jun 18, 2019 - 12:54 AM EDT / 2019.06.18 0454 UTC
Wind: from the ESE (120 degrees) at 7 MPH (6 KT):0
Visibility: 9 mile(s):0
Sky conditions: overcast
Temperature: 69.1 F (20.6 C)
Dew Point: 64.0 F (17.8 C)
Relative Humidity: 83%
Pressure (altimeter): 29.97 in. Hg (1014 hPa)
ob: KUIN 180454Z AUTO 12006KT 9SM OVC017 21/18 A2997 RMK AO2 SLP144 T02060178
cycle: 5

Station Type Date Time Source
KUIN TAF 2019/06/17 22:12 UTC NOAA

TAF
AMD KUIN 172210Z 1722/1818 05005KT P6SM BKN008
FM180000 06005KT P6SM BKN015
FM180900 VRB04KT P6SM BKN028
FM181200 04005KT 4SM BR BKN014
FM181400 05005KT P6SM BKN022

Example: see airport list